sensor_id;sensor_type;location;lat;lon;timestamp;pressure;altitude;pressure_sealevel;temperature;humidity
73516;BME280;61763;51.416;5.442;2023-04-29T00:01:55;101364.44;;;9.22;100.00
73516;BME280;61763;51.416;5.442;2023-04-29T00:04:23;101366.19;;;9.23;100.00
73516;BME280;61763;51.416;5.442;2023-04-29T00:06:49;101365.41;;;9.20;100.00
73516;BME280;61763;51.416;5.442;2023-04-29T00:09:15;101367.94;;;9.24;100.00
73516;BME280;61763;51.416;5.442;2023-04-29T00:11:40;101357.16;;;9.24;100.00
73516;BME280;61763;51.416;5.442;2023-04-29T00:14:05;101372.63;;;9.19;100.00
73516;BME280;61763;51.416;5.442;2023-04-29T00:16:31;101370.91;;;9.17;100.00
73516;BME280;61763;51.416;5.442;2023-04-29T00:18:56;101368.34;;;9.14;100.00
73516;BME280;61763;51.416;5.442;2023-04-29T00:21:22;101372.00;;;9.11;100.00
73516;BME280;61763;51.416;5.442;2023-04-29T00:23:48;101377.13;;;9.19;100.00
73516;BME280;61763;51.416;5.442;2023-04-29T00:26:14;101380.81;;;9.16;100.00
73516;BME280;61763;51.416;5.442;2023-04-29T00:28:40;101372.84;;;9.13;100.00
73516;BME280;61763;51.416;5.442;2023-04-29T00:31:05;101381.91;;;9.10;100.00
73516;BME280;61763;51.416;5.442;2023-04-29T00:33:31;101381.09;;;9.08;100.00
73516;BME280;61763;51.416;5.442;2023-04-29T00:35:57;101390.31;;;9.01;100.00
73516;BME280;61763;51.416;5.442;2023-04-29T00:38:22;101392.16;;;8.99;100.00
73516;BME280;61763;51.416;5.442;2023-04-29T00:40:48;101388.88;;;8.91;100.00
73516;BME280;61763;51.416;5.442;2023-04-29T00:43:13;101390.06;;;8.82;100.00
73516;BME280;61763;51.416;5.442;2023-04-29T00:45:38;101400.09;;;8.77;100.00
73516;BME280;61763;51.416;5.442;2023-04-29T00:48:04;101389.28;;;8.79;100.00
73516;BME280;61763;51.416;5.442;2023-04-29T00:50:29;101402.75;;;8.79;100.00
73516;BME280;61763;51.416;5.442;2023-04-29T00:52:55;101389.22;;;8.80;100.00
73516;BME280;61763;51.416;5.442;2023-04-29T00:55:22;101399.28;;;8.75;100.00
73516;BME280;61763;51.416;5.442;2023-04-29T00:57:48;101401.19;;;8.71;100.00
73516;BME280;61763;51.416;5.442;2023-04-29T01:00:17;101401.34;;;8.67;100.00
73516;BME280;61763;51.416;5.442;2023-04-29T01:02:43;101404.03;;;8.67;100.00
73516;BME280;61763;51.416;5.442;2023-04-29T01:05:10;101407.75;;;8.63;100.00
73516;BME280;61763;51.416;5.442;2023-04-29T01:07:51;101405.84;;;8.66;100.00
73516;BME280;61763;51.416;5.442;2023-04-29T01:10:28;101408.59;;;8.65;100.00
73516;BME280;61763;51.416;5.442;2023-04-29T01:13:53;101411.56;;;8.57;100.00
73516;BME280;61763;51.416;5.442;2023-04-29T01:16:01;101416.84;;;8.60;100.00
73516;BME280;61763;51.416;5.442;2023-04-29T01:18:36;101415.13;;;8.57;100.00
73516;BME280;61763;51.416;5.442;2023-04-29T01:21:04;101420.75;;;8.50;100.00
73516;BME280;61763;51.416;5.442;2023-04-29T01:23:30;101425.34;;;8.46;100.00
73516;BME280;61763;51.416;5.442;2023-04-29T01:25:56;101425.38;;;8.45;100.00
73516;BME280;61763;51.416;5.442;2023-04-29T01:28:53;101426.31;;;8.44;100.00
73516;BME280;61763;51.416;5.442;2023-04-29T01:31:23;101421.84;;;8.42;100.00
73516;BME280;61763;51.416;5.442;2023-04-29T01:33:54;101422.81;;;8.40;100.00
73516;BME280;61763;51.416;5.442;2023-04-29T01:41:56;101437.00;;;8.47;100.00
73516;BME280;61763;51.416;5.442;2023-04-29T01:44:28;101441.41;;;8.48;100.00
73516;BME280;61763;51.416;5.442;2023-04-29T01:46:56;101439.88;;;8.39;100.00
73516;BME280;61763;51.416;5.442;2023-04-29T01:49:26;101437.28;;;8.36;100.00
73516;BME280;61763;51.416;5.442;2023-04-29T01:51:53;101437.22;;;8.37;100.00
73516;BME280;61763;51.416;5.442;2023-04-29T01:54:18;101453.56;;;8.31;100.00
73516;BME280;61763;51.416;5.442;2023-04-29T01:56:44;101446.47;;;8.29;100.00
73516;BME280;61763;51.416;5.442;2023-04-29T01:59:09;101442.91;;;8.28;100.00
73516;BME280;61763;51.416;5.442;2023-04-29T02:01:36;101449.22;;;8.27;100.00
73516;BME280;61763;51.416;5.442;2023-04-29T02:04:02;101443.88;;;8.25;100.00
73516;BME280;61763;51.416;5.442;2023-04-29T02:06:27;101453.97;;;8.19;100.00
73516;BME280;61763;51.416;5.442;2023-04-29T02:08:52;101449.41;;;8.21;100.00
73516;BME280;61763;51.416;5.442;2023-04-29T02:11:18;101457.53;;;8.19;100.00
73516;BME280;61763;51.416;5.442;2023-04-29T02:13:44;101450.31;;;8.20;100.00
73516;BME280;61763;51.416;5.442;2023-04-29T02:16:11;101455.66;;;8.21;100.00
73516;BME280;61763;51.416;5.442;2023-04-29T02:18:36;101473.56;;;8.22;100.00
73516;BME280;61763;51.416;5.442;2023-04-29T02:21:02;101464.63;;;8.22;100.00
73516;BME280;61763;51.416;5.442;2023-04-29T02:23:28;101464.72;;;8.19;100.00
73516;BME280;61763;51.416;5.442;2023-04-29T02:25:54;101470.03;;;8.20;100.00
73516;BME280;61763;51.416;5.442;2023-04-29T02:28:19;101468.22;;;8.21;100.00
73516;BME280;61763;51.416;5.442;2023-04-29T02:30:45;101474.31;;;8.28;100.00
73516;BME280;61763;51.416;5.442;2023-04-29T02:33:10;101473.50;;;8.24;100.00
73516;BME280;61763;51.416;5.442;2023-04-29T02:35:36;101474.56;;;8.18;100.00
73516;BME280;61763;51.416;5.442;2023-04-29T02:38:01;101481.72;;;8.19;100.00
73516;BME280;61763;51.416;5.442;2023-04-29T02:40:26;101479.94;;;8.18;100.00
73516;BME280;61763;51.416;5.442;2023-04-29T02:42:52;101481.63;;;8.22;100.00
73516;BME280;61763;51.416;5.442;2023-04-29T02:45:17;101491.59;;;8.19;100.00
73516;BME280;61763;51.416;5.442;2023-04-29T02:47:43;101497.81;;;8.21;100.00
73516;BME280;61763;51.416;5.442;2023-04-29T02:50:08;101500.44;;;8.22;100.00
73516;BME280;61763;51.416;5.442;2023-04-29T02:52:34;101504.84;;;8.25;100.00
73516;BME280;61763;51.416;5.442;2023-04-29T02:55:00;101508.47;;;8.24;100.00
73516;BME280;61763;51.416;5.442;2023-04-29T02:57:25;101506.59;;;8.28;100.00
73516;BME280;61763;51.416;5.442;2023-04-29T02:59:51;101498.72;;;8.20;100.00
73516;BME280;61763;51.416;5.442;2023-04-29T03:02:16;101511.28;;;8.19;100.00
73516;BME280;61763;51.416;5.442;2023-04-29T03:04:42;101513.22;;;8.16;100.00
73516;BME280;61763;51.416;5.442;2023-04-29T03:07:07;101510.63;;;8.13;100.00
73516;BME280;61763;51.416;5.442;2023-04-29T03:09:33;101511.63;;;8.09;100.00
73516;BME280;61763;51.416;5.442;2023-04-29T03:11:58;101513.41;;;8.08;100.00
73516;BME280;61763;51.416;5.442;2023-04-29T03:14:24;101518.69;;;8.11;100.00
73516;BME280;61763;51.416;5.442;2023-04-29T03:16:49;101519.78;;;8.05;100.00
73516;BME280;61763;51.416;5.442;2023-04-29T03:19:14;101518.88;;;8.05;100.00
73516;BME280;61763;51.416;5.442;2023-04-29T03:21:41;101522.56;;;8.01;100.00
73516;BME280;61763;51.416;5.442;2023-04-29T03:24:06;101524.41;;;8.00;100.00
73516;BME280;61763;51.416;5.442;2023-04-29T03:26:32;101526.16;;;8.01;100.00
73516;BME280;61763;51.416;5.442;2023-04-29T03:28:57;101529.72;;;8.02;100.00
73516;BME280;61763;51.416;5.442;2023-04-29T03:31:23;101527.88;;;8.04;100.00
73516;BME280;61763;51.416;5.442;2023-04-29T03:33:49;101531.63;;;7.98;100.00
73516;BME280;61763;51.416;5.442;2023-04-29T03:36:15;101531.53;;;8.01;100.00
73516;BME280;61763;51.416;5.442;2023-04-29T03:38:41;101527.25;;;7.94;100.00
73516;BME280;61763;51.416;5.442;2023-04-29T03:41:06;101530.97;;;7.90;100.00
73516;BME280;61763;51.416;5.442;2023-04-29T03:43:32;101536.25;;;7.93;100.00
73516;BME280;61763;51.416;5.442;2023-04-29T03:45:57;101532.72;;;7.91;100.00
73516;BME280;61763;51.416;5.442;2023-04-29T03:48:23;101538.94;;;7.93;100.00
73516;BME280;61763;51.416;5.442;2023-04-29T03:50:49;101540.84;;;7.89;100.00
73516;BME280;61763;51.416;5.442;2023-04-29T03:53:14;101538.97;;;7.92;100.00
73516;BME280;61763;51.416;5.442;2023-04-29T03:55:40;101541.63;;;7.93;100.00
73516;BME280;61763;51.416;5.442;2023-04-29T03:58:05;101541.75;;;7.88;100.00
73516;BME280;61763;51.416;5.442;2023-04-29T04:00:31;101543.56;;;7.88;100.00
73516;BME280;61763;51.416;5.442;2023-04-29T04:02:57;101548.00;;;7.89;100.00
73516;BME280;61763;51.416;5.442;2023-04-29T04:05:23;101550.84;;;7.83;100.00
73516;BME280;61763;51.416;5.442;2023-04-29T04:07:52;101555.28;;;7.85;100.00
73516;BME280;61763;51.416;5.442;2023-04-29T04:10:19;101553.53;;;7.83;100.00
73516;BME280;61763;51.416;5.442;2023-04-29T04:12:44;101550.13;;;7.78;100.00
73516;BME280;61763;51.416;5.442;2023-04-29T04:15:11;101568.06;;;7.76;100.00
73516;BME280;61763;51.416;5.442;2023-04-29T04:17:37;101565.47;;;7.72;100.00
73516;BME280;61763;51.416;5.442;2023-04-29T04:20:02;101571.78;;;7.71;100.00
73516;BME280;61763;51.416;5.442;2023-04-29T04:22:28;101571.66;;;7.76;100.00
73516;BME280;61763;51.416;5.442;2023-04-29T04:24:54;101579.69;;;7.78;100.00
73516;BME280;61763;51.416;5.442;2023-04-29T04:27:20;101576.13;;;7.76;100.00
73516;BME280;61763;51.416;5.442;2023-04-29T04:29:45;101579.84;;;7.71;100.00
73516;BME280;61763;51.416;5.442;2023-04-29T04:32:10;101578.13;;;7.69;100.00
73516;BME280;61763;51.416;5.442;2023-04-29T04:34:36;101581.59;;;7.72;100.00
73516;BME280;61763;51.416;5.442;2023-04-29T04:37:03;101587.78;;;7.76;100.00
73516;BME280;61763;51.416;5.442;2023-04-29T04:39:29;101589.53;;;7.77;100.00
73516;BME280;61763;51.416;5.442;2023-04-29T04:41:54;101594.06;;;7.75;100.00
73516;BME280;61763;51.416;5.442;2023-04-29T04:44:20;101599.41;;;7.77;100.00
73516;BME280;61763;51.416;5.442;2023-04-29T04:46:45;101596.81;;;7.74;100.00
73516;BME280;61763;51.416;5.442;2023-04-29T04:49:11;101605.47;;;7.85;100.00
73516;BME280;61763;51.416;5.442;2023-04-29T04:51:36;101608.34;;;7.77;100.00
73516;BME280;61763;51.416;5.442;2023-04-29T04:54:01;101614.56;;;7.79;100.00
73516;BME280;61763;51.416;5.442;2023-04-29T04:56:27;101617.28;;;7.78;100.00
73516;BME280;61763;51.416;5.442;2023-04-29T04:58:52;101625.31;;;7.79;100.00
73516;BME280;61763;51.416;5.442;2023-04-29T05:01:17;101635.16;;;7.80;100.00
73516;BME280;61763;51.416;5.442;2023-04-29T05:03:43;101630.56;;;7.84;100.00
73516;BME280;61763;51.416;5.442;2023-04-29T05:06:08;101640.34;;;7.86;100.00
73516;BME280;61763;51.416;5.442;2023-04-29T05:08:33;101638.59;;;7.85;100.00
73516;BME280;61763;51.416;5.442;2023-04-29T05:10:59;101635.16;;;7.80;100.00
73516;BME280;61763;51.416;5.442;2023-04-29T05:13:24;101641.41;;;7.81;100.00
73516;BME280;61763;51.416;5.442;2023-04-29T05:15:50;101643.16;;;7.82;100.00
73516;BME280;61763;51.416;5.442;2023-04-29T05:18:15;101635.09;;;7.82;100.00
73516;BME280;61763;51.416;5.442;2023-04-29T05:20:41;101645.03;;;7.78;100.00
73516;BME280;61763;51.416;5.442;2023-04-29T05:23:06;101636.97;;;7.78;100.00
73516;BME280;61763;51.416;5.442;2023-04-29T05:25:32;101640.41;;;7.85;100.00
73516;BME280;61763;51.416;5.442;2023-04-29T05:27:57;101647.53;;;7.86;100.00
73516;BME280;61763;51.416;5.442;2023-04-29T05:30:23;101648.25;;;7.93;100.00
73516;BME280;61763;51.416;5.442;2023-04-29T05:32:48;101653.66;;;7.91;100.00
73516;BME280;61763;51.416;5.442;2023-04-29T05:35:14;101651.84;;;7.92;100.00
73516;BME280;61763;51.416;5.442;2023-04-29T05:37:39;101659.97;;;7.90;100.00
73516;BME280;61763;51.416;5.442;2023-04-29T05:40:06;101659.03;;;7.91;100.00
73516;BME280;61763;51.416;5.442;2023-04-29T05:42:32;101657.16;;;7.95;100.00
73516;BME280;61763;51.416;5.442;2023-04-29T05:44:57;101670.47;;;7.99;100.00
73516;BME280;61763;51.416;5.442;2023-04-29T05:47:22;101666.91;;;7.99;100.00
73516;BME280;61763;51.416;5.442;2023-04-29T05:49:48;101676.75;;;8.00;100.00
73516;BME280;61763;51.416;5.442;2023-04-29T05:52:14;101671.44;;;7.97;100.00
73516;BME280;61763;51.416;5.442;2023-04-29T05:54:39;101683.16;;;7.94;100.00
73516;BME280;61763;51.416;5.442;2023-04-29T05:57:05;101683.25;;;7.91;100.00
73516;BME280;61763;51.416;5.442;2023-04-29T05:59:31;101686.72;;;7.95;100.00
73516;BME280;61763;51.416;5.442;2023-04-29T06:01:59;101697.41;;;7.96;100.00
73516;BME280;61763;51.416;5.442;2023-04-29T06:04:25;101695.63;;;7.97;100.00
73516;BME280;61763;51.416;5.442;2023-04-29T06:06:51;101695.50;;;8.01;100.00
73516;BME280;61763;51.416;5.442;2023-04-29T06:09:20;101704.38;;;8.05;100.00
73516;BME280;61763;51.416;5.442;2023-04-29T06:11:46;101700.72;;;8.07;100.00
73516;BME280;61763;51.416;5.442;2023-04-29T06:14:12;101708.63;;;8.14;100.00
73516;BME280;61763;51.416;5.442;2023-04-29T06:16:38;101712.25;;;8.11;100.00
73516;BME280;61763;51.416;5.442;2023-04-29T06:19:03;101707.00;;;8.06;100.00
73516;BME280;61763;51.416;5.442;2023-04-29T06:21:29;101701.69;;;8.05;100.00
73516;BME280;61763;51.416;5.442;2023-04-29T06:23:55;101722.16;;;8.11;100.00
73516;BME280;61763;51.416;5.442;2023-04-29T06:26:21;101714.78;;;8.19;100.00
73516;BME280;61763;51.416;5.442;2023-04-29T06:28:47;101718.22;;;8.24;100.00
73516;BME280;61763;51.416;5.442;2023-04-29T06:31:12;101719.16;;;8.21;100.00
73516;BME280;61763;51.416;5.442;2023-04-29T06:33:38;101719.97;;;8.25;100.00
73516;BME280;61763;51.416;5.442;2023-04-29T06:36:03;101725.28;;;8.28;100.00
73516;BME280;61763;51.416;5.442;2023-04-29T06:38:29;101737.84;;;8.28;100.00
73516;BME280;61763;51.416;5.442;2023-04-29T06:40:55;101733.22;;;8.33;100.00
73516;BME280;61763;51.416;5.442;2023-04-29T06:43:28;101733.19;;;8.34;100.00
73516;BME280;61763;51.416;5.442;2023-04-29T06:45:54;101736.78;;;8.35;100.00
73516;BME280;61763;51.416;5.442;2023-04-29T06:48:19;101740.28;;;8.37;100.00
73516;BME280;61763;51.416;5.442;2023-04-29T06:53:14;101743.56;;;8.50;100.00
73516;BME280;61763;51.416;5.442;2023-04-29T06:55:39;101755.97;;;8.55;100.00
73516;BME280;61763;51.416;5.442;2023-04-29T06:58:05;101757.81;;;8.53;100.00
73516;BME280;61763;51.416;5.442;2023-04-29T07:00:31;101760.28;;;8.61;100.00
73516;BME280;61763;51.416;5.442;2023-04-29T07:02:56;101771.03;;;8.61;100.00
73516;BME280;61763;51.416;5.442;2023-04-29T07:05:22;101772.72;;;8.65;100.00
73516;BME280;61763;51.416;5.442;2023-04-29T07:07:48;101774.41;;;8.69;100.00
73516;BME280;61763;51.416;5.442;2023-04-29T07:10:13;101777.03;;;8.72;100.00
73516;BME280;61763;51.416;5.442;2023-04-29T07:12:39;101782.38;;;8.74;100.00
73516;BME280;61763;51.416;5.442;2023-04-29T07:15:04;101778.63;;;8.80;100.00
73516;BME280;61763;51.416;5.442;2023-04-29T07:17:30;101779.22;;;8.91;100.00
73516;BME280;61763;51.416;5.442;2023-04-29T07:19:56;101777.22;;;8.98;100.00
73516;BME280;61763;51.416;5.442;2023-04-29T07:22:21;101761.72;;;9.06;100.00
73516;BME280;61763;51.416;5.442;2023-04-29T07:24:46;101781.56;;;9.33;100.00
73516;BME280;61763;51.416;5.442;2023-04-29T07:27:12;101783.69;;;9.52;100.00
73516;BME280;61763;51.416;5.442;2023-04-29T07:29:37;101776.16;;;9.63;100.00
73516;BME280;61763;51.416;5.442;2023-04-29T07:32:04;101785.91;;;9.67;100.00
73516;BME280;61763;51.416;5.442;2023-04-29T07:34:29;101788.47;;;9.72;100.00
73516;BME280;61763;51.416;5.442;2023-04-29T07:36:54;101792.44;;;9.88;100.00
73516;BME280;61763;51.416;5.442;2023-04-29T07:39:21;101788.66;;;9.94;100.00
73516;BME280;61763;51.416;5.442;2023-04-29T07:41:46;101793.78;;;10.02;100.00
73516;BME280;61763;51.416;5.442;2023-04-29T07:44:12;101795.66;;;9.99;100.00
73516;BME280;61763;51.416;5.442;2023-04-29T07:46:37;101802.81;;;10.00;100.00
73516;BME280;61763;51.416;5.442;2023-04-29T07:49:02;101796.53;;;10.00;100.00
73516;BME280;61763;51.416;5.442;2023-04-29T07:51:29;101805.16;;;10.11;100.00
73516;BME280;61763;51.416;5.442;2023-04-29T07:53:54;101808.94;;;10.06;100.00
73516;BME280;61763;51.416;5.442;2023-04-29T07:56:20;101807.94;;;10.08;100.00
73516;BME280;61763;51.416;5.442;2023-04-29T07:58:47;101809.47;;;10.17;100.00
73516;BME280;61763;51.416;5.442;2023-04-29T08:01:12;101815.44;;;10.27;100.00
73516;BME280;61763;51.416;5.442;2023-04-29T08:03:39;101810.75;;;10.33;100.00
73516;BME280;61763;51.416;5.442;2023-04-29T08:06:05;101807.13;;;10.34;100.00
73516;BME280;61763;51.416;5.442;2023-04-29T08:08:31;101813.56;;;10.29;100.00
73516;BME280;61763;51.416;5.442;2023-04-29T08:10:57;101819.06;;;10.26;100.00
73516;BME280;61763;51.416;5.442;2023-04-29T08:13:23;101823.09;;;10.12;100.00
73516;BME280;61763;51.416;5.442;2023-04-29T08:15:48;101822.28;;;10.10;100.00
73516;BME280;61763;51.416;5.442;2023-04-29T08:18:15;101829.13;;;10.21;100.00
73516;BME280;61763;51.416;5.442;2023-04-29T08:20:40;101826.22;;;10.27;100.00
73516;BME280;61763;51.416;5.442;2023-04-29T08:23:06;101826.63;;;10.43;100.00
73516;BME280;61763;51.416;5.442;2023-04-29T08:25:31;101816.69;;;10.70;100.00
73516;BME280;61763;51.416;5.442;2023-04-29T08:27:57;101822.13;;;10.94;100.00
73516;BME280;61763;51.416;5.442;2023-04-29T08:30:22;101823.63;;;11.02;100.00
73516;BME280;61763;51.416;5.442;2023-04-29T08:32:48;101823.66;;;11.26;100.00
73516;BME280;61763;51.416;5.442;2023-04-29T08:35:14;101823.31;;;11.59;100.00
73516;BME280;61763;51.416;5.442;2023-04-29T08:37:40;101824.22;;;11.82;100.00
73516;BME280;61763;51.416;5.442;2023-04-29T08:40:08;101829.38;;;11.88;100.00
73516;BME280;61763;51.416;5.442;2023-04-29T08:42:35;101813.88;;;12.15;100.00
73516;BME280;61763;51.416;5.442;2023-04-29T08:45:02;101814.72;;;12.38;100.00
73516;BME280;61763;51.416;5.442;2023-04-29T08:47:35;101821.59;;;12.47;100.00
73516;BME280;61763;51.416;5.442;2023-04-29T08:50:03;101824.19;;;12.70;100.00
73516;BME280;61763;51.416;5.442;2023-04-29T08:52:32;101819.88;;;12.87;100.00
73516;BME280;61763;51.416;5.442;2023-04-29T08:55:00;101823.50;;;12.86;100.00
73516;BME280;61763;51.416;5.442;2023-04-29T08:57:29;101823.97;;;12.95;100.00
73516;BME280;61763;51.416;5.442;2023-04-29T09:00:07;101822.66;;;13.04;100.00
73516;BME280;61763;51.416;5.442;2023-04-29T09:02:38;101827.19;;;13.24;100.00
73516;BME280;61763;51.416;5.442;2023-04-29T09:05:09;101823.00;;;13.38;100.00
73516;BME280;61763;51.416;5.442;2023-04-29T09:07:38;101826.97;;;13.49;100.00
73516;BME280;61763;51.416;5.442;2023-04-29T09:10:05;101826.09;;;13.49;100.00
73516;BME280;61763;51.416;5.442;2023-04-29T09:12:31;101835.47;;;13.61;100.00
73516;BME280;61763;51.416;5.442;2023-04-29T09:14:57;101837.59;;;13.33;100.00
73516;BME280;61763;51.416;5.442;2023-04-29T09:22:51;101842.03;;;13.36;100.00
73516;BME280;61763;51.416;5.442;2023-04-29T09:25:18;101838.66;;;13.71;100.00
73516;BME280;61763;51.416;5.442;2023-04-29T09:27:43;101838.53;;;13.91;100.00
73516;BME280;61763;51.416;5.442;2023-04-29T09:30:09;101832.22;;;14.10;100.00
73516;BME280;61763;51.416;5.442;2023-04-29T09:32:36;101842.03;;;14.68;100.00
73516;BME280;61763;51.416;5.442;2023-04-29T09:35:20;101833.78;;;14.33;98.55
73516;BME280;61763;51.416;5.442;2023-04-29T09:37:46;101832.78;;;14.35;100.00
73516;BME280;61763;51.416;5.442;2023-04-29T09:40:32;101841.34;;;14.26;97.88
73516;BME280;61763;51.416;5.442;2023-04-29T09:42:59;101845.00;;;14.08;97.76
73516;BME280;61763;51.416;5.442;2023-04-29T09:45:51;101847.31;;;14.15;100.00
73516;BME280;61763;51.416;5.442;2023-04-29T09:48:16;101857.22;;;14.53;97.47
73516;BME280;61763;51.416;5.442;2023-04-29T09:50:43;101851.78;;;14.53;99.87
73516;BME280;61763;51.416;5.442;2023-04-29T09:53:29;101846.22;;;14.74;92.02
73516;BME280;61763;51.416;5.442;2023-04-29T09:56:00;101859.97;;;14.70;92.18
73516;BME280;61763;51.416;5.442;2023-04-29T09:58:30;101860.66;;;14.57;91.00
73516;BME280;61763;51.416;5.442;2023-04-29T10:01:01;101861.50;;;14.76;92.74
73516;BME280;61763;51.416;5.442;2023-04-29T10:03:35;101860.13;;;15.20;94.41
73516;BME280;61763;51.416;5.442;2023-04-29T10:06:02;101868.03;;;15.24;86.31
73516;BME280;61763;51.416;5.442;2023-04-29T10:08:29;101863.28;;;15.95;79.29
73516;BME280;61763;51.416;5.442;2023-04-29T10:10:59;101866.78;;;15.81;79.02
73516;BME280;61763;51.416;5.442;2023-04-29T10:13:26;101853.97;;;15.50;79.60
73516;BME280;61763;51.416;5.442;2023-04-29T10:18:40;101863.72;;;15.87;76.07
73516;BME280;61763;51.416;5.442;2023-04-29T10:21:07;101872.47;;;15.43;83.64
73516;BME280;61763;51.416;5.442;2023-04-29T10:23:36;101860.88;;;15.39;80.81
73516;BME280;61763;51.416;5.442;2023-04-29T10:26:02;101867.75;;;15.47;78.88
73516;BME280;61763;51.416;5.442;2023-04-29T10:28:31;101860.47;;;15.63;80.02
73516;BME280;61763;51.416;5.442;2023-04-29T10:31:00;101863.88;;;15.00;83.24
73516;BME280;61763;51.416;5.442;2023-04-29T10:33:29;101870.34;;;15.15;84.72
73516;BME280;61763;51.416;5.442;2023-04-29T10:35:55;101866.09;;;15.27;83.56
73516;BME280;61763;51.416;5.442;2023-04-29T10:38:39;101873.09;;;14.80;86.19
73516;BME280;61763;51.416;5.442;2023-04-29T10:41:20;101866.91;;;15.29;83.35
73516;BME280;61763;51.416;5.442;2023-04-29T10:43:49;101863.41;;;15.42;82.15
73516;BME280;61763;51.416;5.442;2023-04-29T10:46:22;101872.78;;;15.37;81.79
73516;BME280;61763;51.416;5.442;2023-04-29T10:48:50;101872.13;;;15.16;80.30
73516;BME280;61763;51.416;5.442;2023-04-29T10:51:43;101879.56;;;14.77;81.42
73516;BME280;61763;51.416;5.442;2023-04-29T10:54:15;101875.81;;;14.80;81.04
73516;BME280;61763;51.416;5.442;2023-04-29T10:56:49;101880.44;;;14.78;81.45
73516;BME280;61763;51.416;5.442;2023-04-29T11:02:00;101880.84;;;14.87;82.22
73516;BME280;61763;51.416;5.442;2023-04-29T11:04:26;101879.41;;;14.44;84.22
73516;BME280;61763;51.416;5.442;2023-04-29T11:06:54;101880.59;;;14.75;81.30
73516;BME280;61763;51.416;5.442;2023-04-29T11:14:14;101885.34;;;14.88;84.26
73516;BME280;61763;51.416;5.442;2023-04-29T11:17:11;101895.97;;;14.57;88.49
73516;BME280;61763;51.416;5.442;2023-04-29T11:19:44;101893.56;;;14.69;89.17
73516;BME280;61763;51.416;5.442;2023-04-29T11:24:36;101891.63;;;15.06;80.31
73516;BME280;61763;51.416;5.442;2023-04-29T11:27:02;101893.00;;;14.80;84.06
73516;BME280;61763;51.416;5.442;2023-04-29T11:29:31;101892.44;;;14.91;81.61
73516;BME280;61763;51.416;5.442;2023-04-29T11:32:00;101887.19;;;14.32;81.44
73516;BME280;61763;51.416;5.442;2023-04-29T11:34:26;101892.69;;;14.50;80.15
73516;BME280;61763;51.416;5.442;2023-04-29T11:36:52;101890.44;;;14.41;82.22
73516;BME280;61763;51.416;5.442;2023-04-29T11:39:17;101895.00;;;14.40;80.68
73516;BME280;61763;51.416;5.442;2023-04-29T11:41:42;101893.47;;;14.34;81.41
73516;BME280;61763;51.416;5.442;2023-04-29T11:44:08;101890.91;;;14.68;82.51
73516;BME280;61763;51.416;5.442;2023-04-29T11:46:34;101884.94;;;14.96;81.96
73516;BME280;61763;51.416;5.442;2023-04-29T11:49:00;101887.00;;;14.37;83.01
73516;BME280;61763;51.416;5.442;2023-04-29T11:51:26;101897.09;;;14.52;82.72
73516;BME280;61763;51.416;5.442;2023-04-29T11:53:52;101901.72;;;14.50;84.54
73516;BME280;61763;51.416;5.442;2023-04-29T11:56:21;101905.06;;;14.75;82.09
73516;BME280;61763;51.416;5.442;2023-04-29T11:58:53;101901.13;;;14.63;82.06
73516;BME280;61763;51.416;5.442;2023-04-29T12:01:20;101897.53;;;14.62;81.31
73516;BME280;61763;51.416;5.442;2023-04-29T12:03:48;101901.03;;;14.64;81.63
73516;BME280;61763;51.416;5.442;2023-04-29T12:06:14;101906.97;;;14.73;81.64
73516;BME280;61763;51.416;5.442;2023-04-29T12:08:39;101901.06;;;14.99;80.70
73516;BME280;61763;51.416;5.442;2023-04-29T12:11:05;101893.63;;;15.20;77.99
73516;BME280;61763;51.416;5.442;2023-04-29T12:13:32;101894.63;;;15.35;77.40
73516;BME280;61763;51.416;5.442;2023-04-29T12:16:02;101888.50;;;15.32;77.60
73516;BME280;61763;51.416;5.442;2023-04-29T12:18:28;101901.22;;;15.65;77.08
73516;BME280;61763;51.416;5.442;2023-04-29T12:20:55;101894.00;;;15.81;76.42
73516;BME280;61763;51.416;5.442;2023-04-29T12:23:24;101890.31;;;16.46;73.93
73516;BME280;61763;51.416;5.442;2023-04-29T12:25:55;101893.06;;;16.92;66.50
73516;BME280;61763;51.416;5.442;2023-04-29T12:28:22;101887.13;;;17.00;65.79
73516;BME280;61763;51.416;5.442;2023-04-29T12:30:49;101893.56;;;16.99;67.02
73516;BME280;61763;51.416;5.442;2023-04-29T12:35:47;101890.44;;;16.75;66.77
73516;BME280;61763;51.416;5.442;2023-04-29T12:38:15;101893.34;;;16.88;69.08
73516;BME280;61763;51.416;5.442;2023-04-29T12:40:43;101890.94;;;16.81;65.27
73516;BME280;61763;51.416;5.442;2023-04-29T12:43:09;101892.88;;;16.79;64.89
73516;BME280;61763;51.416;5.442;2023-04-29T12:45:35;101896.19;;;17.01;68.63
73516;BME280;61763;51.416;5.442;2023-04-29T12:48:01;101899.13;;;16.97;62.62
73516;BME280;61763;51.416;5.442;2023-04-29T12:50:35;101896.47;;;16.96;64.62
73516;BME280;61763;51.416;5.442;2023-04-29T12:53:06;101901.00;;;16.65;64.90
73516;BME280;61763;51.416;5.442;2023-04-29T12:55:34;101900.94;;;16.67;63.17
73516;BME280;61763;51.416;5.442;2023-04-29T12:58:02;101902.72;;;16.82;60.97
73516;BME280;61763;51.416;5.442;2023-04-29T13:00:28;101905.78;;;17.08;60.33
73516;BME280;61763;51.416;5.442;2023-04-29T13:02:53;101901.66;;;17.15;60.58
73516;BME280;61763;51.416;5.442;2023-04-29T13:05:18;101895.00;;;17.05;61.99
73516;BME280;61763;51.416;5.442;2023-04-29T13:07:44;101888.59;;;17.50;59.30
73516;BME280;61763;51.416;5.442;2023-04-29T13:10:09;101894.22;;;17.62;60.55
73516;BME280;61763;51.416;5.442;2023-04-29T13:12:36;101891.28;;;17.65;60.58
73516;BME280;61763;51.416;5.442;2023-04-29T13:15:04;101895.97;;;17.63;59.44
73516;BME280;61763;51.416;5.442;2023-04-29T13:17:29;101903.28;;;16.89;58.55